createdAt,value
2022-11-27T00:04:17.707Z,38.80
2022-11-27T00:09:23.664Z,36.20
2022-11-27T00:14:29.536Z,34.60
2022-11-27T00:19:35.278Z,34.60
2022-11-27T00:24:41.102Z,34.90
2022-11-27T00:29:46.930Z,37.20
2022-11-27T00:34:52.651Z,34.70
2022-11-27T00:39:58.364Z,33.30
2022-11-27T00:45:04.529Z,33.90
2022-11-27T00:50:11.159Z,34.40
2022-11-27T00:55:17.072Z,34.10
2022-11-27T01:00:23.934Z,31.50
2022-11-27T01:05:29.614Z,31.90
2022-11-27T01:10:35.366Z,32.90
2022-11-27T01:15:41.195Z,33.90
2022-11-27T01:20:46.859Z,31.20
2022-11-27T01:25:55.942Z,29.70
2022-11-27T01:31:06.977Z,31.30
2022-11-27T01:36:14.652Z,34.80
2022-11-27T01:41:22.551Z,30.50
2022-11-27T01:46:35.084Z,29.00
2022-11-27T01:51:46.668Z,31.10
2022-11-27T01:56:57.941Z,33.30
2022-11-27T02:02:05.069Z,32.20
2022-11-27T02:07:11.166Z,30.60
2022-11-27T02:12:25.128Z,29.90
2022-11-27T02:17:39.473Z,31.00
2022-11-27T02:23:02.517Z,30.70
2022-11-27T02:28:34.786Z,29.60
2022-11-27T02:33:45.460Z,28.20
2022-11-27T02:39:01.065Z,30.90
2022-11-27T02:44:10.562Z,30.30
2022-11-27T02:49:19.346Z,31.90
2022-11-27T02:54:28.825Z,29.10
2022-11-27T02:59:36.649Z,31.50
2022-11-27T03:04:46.518Z,33.90
2022-11-27T03:09:59.165Z,34.80
2022-11-27T03:15:06.674Z,33.70
2022-11-27T03:20:18.840Z,35.00
2022-11-27T03:25:25.137Z,34.80
2022-11-27T03:30:30.870Z,37.40
2022-11-27T03:35:36.686Z,34.50
2022-11-27T03:40:50.351Z,33.90
2022-11-27T03:46:01.063Z,34.40
2022-11-27T03:51:15.200Z,36.40
2022-11-27T03:56:32.440Z,38.20
2022-11-27T04:01:39.126Z,36.90
2022-11-27T04:06:45.026Z,37.50
2022-11-27T04:11:50.635Z,39.40
2022-11-27T04:16:56.477Z,41.30
2022-11-27T04:22:02.460Z,41.60
2022-11-27T04:27:08.388Z,41.50
2022-11-27T04:32:14.251Z,40.70
2022-11-27T04:37:19.963Z,39.60
2022-11-27T04:42:27.036Z,43.40
2022-11-27T04:47:32.885Z,42.90
2022-11-27T04:52:38.769Z,42.10
2022-11-27T04:57:44.598Z,45.00
2022-11-27T05:02:50.403Z,47.60
2022-11-27T05:07:56.319Z,45.70
2022-11-27T05:13:02.151Z,41.00
2022-11-27T05:18:08.119Z,40.90
2022-11-27T05:23:13.836Z,41.90
2022-11-27T05:28:26.254Z,43.20
2022-11-27T05:33:32.527Z,42.40
2022-11-27T05:38:38.423Z,42.40
2022-11-27T05:43:44.287Z,42.20
2022-11-27T05:48:50.669Z,44.60
2022-11-27T05:53:56.414Z,46.90
2022-11-27T05:59:02.273Z,44.70
2022-11-27T06:04:08.192Z,43.80
2022-11-27T06:09:14.066Z,45.50
2022-11-27T06:14:19.705Z,49.10
2022-11-27T06:19:25.502Z,48.30
2022-11-27T06:24:31.211Z,41.80
2022-11-27T06:29:37.916Z,43.90
2022-11-27T06:34:43.848Z,47.10
2022-11-27T06:39:50.794Z,46.70
2022-11-27T06:44:56.540Z,46.40
2022-11-27T06:50:02.289Z,41.60
2022-11-27T06:55:09.004Z,48.20
2022-11-27T07:00:16.566Z,50.40
2022-11-27T07:05:23.125Z,49.80
2022-11-27T07:10:28.921Z,50.10
2022-11-27T07:15:35.957Z,54.10
2022-11-27T07:20:41.835Z,54.80
2022-11-27T07:25:47.526Z,52.30
2022-11-27T07:30:58.565Z,51.10
2022-11-27T07:41:10.665Z,48.60
2022-11-27T07:46:18.916Z,50.90
2022-11-27T07:51:24.631Z,50.80
2022-11-27T07:56:30.766Z,49.90
2022-11-27T08:01:36.800Z,51.70
2022-11-27T08:06:42.625Z,56.00
2022-11-27T08:11:48.353Z,51.40
2022-11-27T08:16:54.143Z,51.00
2022-11-27T08:21:59.835Z,53.60
2022-11-27T08:27:05.531Z,60.70
2022-11-27T08:32:11.941Z,55.50
2022-11-27T08:37:17.838Z,59.80
2022-11-27T08:42:23.732Z,52.90
2022-11-27T08:47:29.629Z,57.70
2022-11-27T08:52:35.374Z,60.00
2022-11-27T08:57:41.153Z,57.20
2022-11-27T09:02:46.956Z,56.80
2022-11-27T09:07:53.197Z,58.40
2022-11-27T09:12:59.698Z,55.20
2022-11-27T09:18:05.711Z,55.60
2022-11-27T09:23:14.521Z,49.50
2022-11-27T09:28:21.181Z,50.20
2022-11-27T09:33:28.520Z,53.10
2022-11-27T09:38:35.168Z,49.40
2022-11-27T09:43:53.389Z,60.40
2022-11-27T09:49:03.313Z,51.30
2022-11-27T09:54:16.539Z,55.30
2022-11-27T09:59:29.078Z,51.30
2022-11-27T10:04:58.043Z,46.60
2022-11-27T10:10:16.244Z,52.50
2022-11-27T10:15:36.561Z,51.80
2022-11-27T10:20:48.823Z,53.20
2022-11-27T10:25:58.020Z,48.20
2022-11-27T10:31:11.439Z,46.40
2022-11-27T10:36:28.416Z,47.10
2022-11-27T10:41:49.444Z,48.50
2022-11-27T10:47:02.086Z,46.80
2022-11-27T10:52:14.259Z,44.70
2022-11-27T10:57:40.398Z,47.30
2022-11-27T11:02:46.273Z,47.50
2022-11-27T11:08:02.085Z,48.60
2022-11-27T11:13:19.819Z,47.70
2022-11-27T11:18:27.765Z,48.40
2022-11-27T11:23:35.771Z,43.20
2022-11-27T11:28:50.112Z,47.30
2022-11-27T11:33:59.168Z,50.60
2022-11-27T11:39:05.152Z,49.00
2022-11-27T11:44:25.830Z,44.80
2022-11-27T11:49:34.029Z,39.60
2022-11-27T11:54:53.518Z,41.50
2022-11-27T12:00:05.841Z,50.90
2022-11-27T12:05:24.324Z,52.40
2022-11-27T12:10:38.201Z,40.10
2022-11-27T12:15:50.608Z,42.60
2022-11-27T12:21:07.042Z,49.70
2022-11-27T12:26:28.087Z,48.30
2022-11-27T12:31:53.251Z,44.00
2022-11-27T12:37:17.332Z,41.50
2022-11-27T12:42:29.595Z,42.00
2022-11-27T12:47:41.021Z,40.60
2022-11-27T12:52:55.369Z,42.90
2022-11-27T12:58:06.440Z,41.10
2022-11-27T13:08:26.181Z,38.70
2022-11-27T13:13:37.799Z,40.70
2022-11-27T13:18:49.476Z,42.30
2022-11-27T13:23:55.693Z,43.60
2022-11-27T13:29:05.979Z,40.90
2022-11-27T13:34:20.531Z,38.60
2022-11-27T13:39:28.538Z,41.60
2022-11-27T13:44:40.217Z,42.00
2022-11-27T13:49:57.847Z,43.50
2022-11-27T13:55:06.265Z,39.70
2022-11-27T14:00:16.281Z,35.70
2022-11-27T14:05:35.365Z,37.80
2022-11-27T14:10:51.553Z,39.50
2022-11-27T14:16:05.011Z,49.60
2022-11-27T14:21:26.134Z,42.40
2022-11-27T14:26:32.111Z,39.50
2022-11-27T14:31:37.829Z,39.50
2022-11-27T14:36:43.601Z,43.30
2022-11-27T14:41:58.171Z,43.80
2022-11-27T14:47:06.959Z,39.50
2022-11-27T14:52:17.780Z,37.50
2022-11-27T14:57:26.618Z,38.70
2022-11-27T15:02:32.694Z,39.20
2022-11-27T15:07:47.982Z,41.00
2022-11-27T15:12:56.658Z,38.60
2022-11-27T15:18:06.600Z,38.40
2022-11-27T15:23:19.817Z,40.60
2022-11-27T15:28:36.320Z,50.40
2022-11-27T15:33:42.364Z,59.20
2022-11-27T15:38:51.028Z,61.50
2022-11-27T15:43:56.894Z,66.60
2022-11-27T15:49:02.768Z,67.70
2022-11-27T15:54:08.577Z,71.90
2022-11-27T15:59:14.560Z,79.30
2022-11-27T16:04:20.841Z,121.10
2022-11-27T16:09:26.546Z,87.50
2022-11-27T16:14:32.172Z,101.20
2022-11-27T16:19:37.834Z,99.50
2022-11-27T16:24:44.635Z,96.80
2022-11-27T16:29:50.566Z,91.10
2022-11-27T16:34:56.481Z,92.40
2022-11-27T16:40:02.700Z,85.20
2022-11-27T16:45:10.269Z,142.50
2022-11-27T16:50:17.098Z,94.80
2022-11-27T16:55:24.038Z,68.60
2022-11-27T17:00:30.356Z,66.50
2022-11-27T17:05:38.405Z,70.80
2022-11-27T17:10:45.412Z,72.20
2022-11-27T17:15:51.343Z,76.00
2022-11-27T17:21:02.631Z,70.30
2022-11-27T17:26:13.081Z,65.50
2022-11-27T17:31:21.061Z,76.30
2022-11-27T17:36:33.795Z,89.20
2022-11-27T17:41:46.914Z,85.60
2022-11-27T17:46:52.561Z,74.80
2022-11-27T17:52:01.792Z,71.00
2022-11-27T17:57:10.974Z,75.50
2022-11-27T18:02:18.039Z,82.10
2022-11-27T18:07:24.483Z,82.90
2022-11-27T18:12:30.379Z,84.20
2022-11-27T18:17:36.954Z,85.10
2022-11-27T18:22:42.707Z,104.90
2022-11-27T18:27:48.545Z,109.50
2022-11-27T18:32:54.474Z,102.50
2022-11-27T18:38:00.313Z,108.00
2022-11-27T18:43:06.063Z,107.80
2022-11-27T18:48:12.189Z,118.80
2022-11-27T18:53:17.858Z,127.70
2022-11-27T18:58:23.600Z,128.90
2022-11-27T19:03:29.487Z,122.70
2022-11-27T19:08:37.201Z,132.00
2022-11-27T19:13:43.923Z,130.80
2022-11-27T19:18:50.072Z,104.10
2022-11-27T19:23:57.432Z,100.30
2022-11-27T19:29:05.853Z,85.90
2022-11-27T19:34:13.999Z,81.30
2022-11-27T19:39:20.008Z,82.30
2022-11-27T19:44:27.208Z,80.40
2022-11-27T19:49:33.103Z,76.90
2022-11-27T19:54:39.501Z,77.60
2022-11-27T19:59:46.144Z,81.30
2022-11-27T20:04:53.854Z,83.20
2022-11-27T20:09:59.805Z,85.50
2022-11-27T20:15:07.770Z,73.10
2022-11-27T20:20:16.657Z,78.80
2022-11-27T20:25:22.689Z,83.40
2022-11-27T20:30:28.547Z,86.00
2022-11-27T20:35:34.331Z,84.50
2022-11-27T20:40:41.187Z,78.90
2022-11-27T20:45:47.144Z,76.10
2022-11-27T20:50:53.061Z,81.50
2022-11-27T20:56:04.162Z,85.00
2022-11-27T21:01:16.647Z,77.10
2022-11-27T21:06:24.261Z,80.60
2022-11-27T21:11:32.593Z,78.40
2022-11-27T21:16:42.010Z,94.00
2022-11-27T21:21:48.196Z,91.30
2022-11-27T21:26:54.225Z,86.00
2022-11-27T21:32:00.282Z,85.20
2022-11-27T21:37:06.483Z,89.80
2022-11-27T21:42:13.335Z,98.30
2022-11-27T21:47:19.361Z,85.00
2022-11-27T21:52:25.354Z,79.80
2022-11-27T21:57:31.357Z,80.10
2022-11-27T22:02:37.304Z,88.60
2022-11-27T22:07:43.338Z,81.00
2022-11-27T22:12:49.161Z,72.10
2022-11-27T22:17:55.035Z,71.00
2022-11-27T22:23:01.589Z,71.60
2022-11-27T22:28:07.545Z,70.10
2022-11-27T22:33:14.657Z,62.40
2022-11-27T22:38:20.457Z,67.50
2022-11-27T22:43:26.230Z,69.50
2022-11-27T22:48:32.423Z,72.40
2022-11-27T22:53:38.918Z,67.90
2022-11-27T22:58:44.857Z,66.80
2022-11-27T23:03:53.200Z,69.20
2022-11-27T23:08:59.729Z,68.20
2022-11-27T23:14:05.649Z,62.20
2022-11-27T23:19:12.412Z,63.90
2022-11-27T23:24:18.220Z,66.70
2022-11-27T23:29:24.013Z,68.20
2022-11-27T23:34:30.659Z,65.40
2022-11-27T23:39:36.703Z,61.10
2022-11-27T23:44:42.595Z,63.40
2022-11-27T23:49:48.686Z,64.90
2022-11-27T23:54:54.475Z,61.20
